Terminal Aerodrome Forecast
Issued by NWS

Home | Current Version | Previous Version | Text Only | Print | Product List | Glossary Off
Versions: 1 2 3 4 5 6 7 8 9 10 11 12 13 14 15 16 17 18 19 20 21 22 23 24 25

000
FTUS43 KTOP 222320
TAFMHK
TAF
KMHK 222320Z 2300/2324 10006KT 3SM -FZDZ OVC004
      TEMPO 2300/2302 -FZRA
     FM230200 VRB02KT 2SM -FZDZ OVC003
     FM230500 27002KT 6SM BR OVC004
     FM231600 36004KT P6SM SCT002 BKN010
     FM231900 05004KT P6SM SCT010=

USA.gov is the U.S. government's official web portal to all federal, state and local government web resources and services.